Time;durP1;ratioP1;P1;durP2;ratioP2;P2;SDS_P1;SDS_P2;PMS_P1;PMS_P2;Temp;Humidity;BMP_temperature;BMP_pressure;BME280_temperature;BME280_humidity;BME280_pressure;Samples;Min_cycle;Max_cycle;Signal;HPM_P1;HPM_P2
2024/01/09 05:22:37;;;;;;;7.30;4.85;;;;;;;-6.07;80.10;101311.56;5109458;27;20817;-33
2024/01/09 05:25:03;;;;;;;11.48;5.65;;;;;;;-6.04;79.78;101309.75;5109753;28;20556;-32
2024/01/09 05:27:28;;;;;;;5.40;3.83;;;;;;;-6.31;81.30;101303.56;5109379;28;20483;-36
2024/01/09 05:29:54;;;;;;;11.15;7.30;;;;;;;-6.15;80.29;101313.50;5109646;28;20039;-36
2024/01/09 05:32:19;;;;;;;9.15;5.70;;;;;;;-6.09;79.49;101310.75;5109542;28;20055;-33
2024/01/09 05:34:44;;;;;;;15.55;5.32;;;;;;;-6.29;81.12;101317.34;5109371;28;20447;-31
2024/01/09 05:37:10;;;;;;;9.73;6.05;;;;;;;-6.28;81.48;101311.25;5109190;28;20074;-34
2024/01/09 05:39:35;;;;;;;8.93;5.88;;;;;;;-6.15;80.24;101311.78;5109525;28;20040;-31
2024/01/09 05:42:00;;;;;;;10.48;5.65;;;;;;;-6.27;81.43;101312.09;5109250;28;20051;-32
2024/01/09 05:44:26;;;;;;;13.98;5.40;;;;;;;-6.15;79.77;101314.38;5109202;28;20043;-34
2024/01/09 05:46:51;;;;;;;11.52;5.95;;;;;;;-6.03;78.49;101319.22;5109053;28;20384;-33
2024/01/09 05:49:17;;;;;;;10.52;5.97;;;;;;;-6.18;80.53;101321.41;5109252;28;20040;-32
2024/01/09 05:51:42;;;;;;;7.70;4.93;;;;;;;-6.13;79.60;101317.78;5109538;28;20031;-34
2024/01/09 05:54:07;;;;;;;10.02;5.15;;;;;;;-6.10;80.47;101322.03;5106452;28;20049;-37
2024/01/09 05:56:33;;;;;;;12.70;7.18;;;;;;;-6.22;80.34;101318.03;5112735;28;20407;-32
2024/01/09 05:58:58;;;;;;;10.20;6.65;;;;;;;-6.28;80.90;101324.22;5118912;28;20056;-34
2024/01/09 06:01:23;;;;;;;8.15;4.97;;;;;;;-6.21;80.66;101321.47;5111626;27;20517;-31
2024/01/09 06:03:49;;;;;;;10.60;5.57;;;;;;;-6.12;79.18;101319.50;5097818;28;20028;-31
2024/01/09 06:06:14;;;;;;;8.38;4.45;;;;;;;-6.21;79.75;101313.69;5108098;28;20027;-35
2024/01/09 06:08:40;;;;;;;6.53;4.47;;;;;;;-6.25;80.50;101323.31;5090072;28;20081;-33
2024/01/09 06:11:05;;;;;;;9.93;5.45;;;;;;;-6.15;80.09;101321.31;5107820;28;20040;-33
2024/01/09 06:13:31;;;;;;;8.30;5.13;;;;;;;-6.26;80.07;101320.72;5107199;28;20035;-34
2024/01/09 06:15:56;;;;;;;9.20;5.65;;;;;;;-6.07;78.89;101327.97;5108543;28;20122;-32
2024/01/09 06:18:21;;;;;;;7.40;4.63;;;;;;;-6.24;79.53;101327.59;5108199;28;20048;-33
2024/01/09 06:20:47;;;;;;;10.20;5.30;;;;;;;-6.25;80.31;101322.44;5108563;28;20131;-33
2024/01/09 06:23:12;;;;;;;6.22;4.18;;;;;;;-6.16;79.68;101319.59;5108531;28;20035;-35
2024/01/09 06:25:38;;;;;;;6.68;3.05;;;;;;;-6.28;80.42;101324.22;5108478;28;20046;-33
2024/01/09 06:28:03;;;;;;;5.47;4.43;;;;;;;-6.16;79.35;101320.44;5108276;28;20067;-33
2024/01/09 06:30:30;;;;;;;8.60;5.63;;;;;;;-6.15;79.96;101324.75;5108441;28;20044;-34
2024/01/09 06:32:55;;;;;;;8.55;5.65;;;;;;;-6.05;80.16;101320.16;5100269;28;20047;-32
2024/01/09 06:35:20;;;;;;;8.05;4.68;;;;;;;-6.29;80.57;101317.34;5094792;28;20062;-37
2024/01/09 06:37:46;;;;;;;11.55;5.68;;;;;;;-6.20;81.60;101316.22;5094578;28;20047;-35
2024/01/09 06:40:11;;;;;;;7.45;3.92;;;;;;;-6.24;80.84;101317.22;5094811;28;20118;-35
2024/01/09 06:42:37;;;;;;;7.72;4.35;;;;;;;-6.11;79.37;101312.56;5094509;28;20032;-37
2024/01/09 06:45:02;;;;;;;5.88;3.55;;;;;;;-6.24;80.28;101321.56;5094622;28;20086;-34
2024/01/09 06:47:27;;;;;;;6.53;3.75;;;;;;;-6.19;80.08;101317.09;5094297;28;20036;-32
2024/01/09 06:49:53;;;;;;;10.48;5.68;;;;;;;-6.11;79.42;101325.53;5094460;28;20044;-38
2024/01/09 06:52:18;;;;;;;9.85;5.38;;;;;;;-6.15;79.60;101322.16;5094224;28;20040;-32
2024/01/09 06:54:44;;;;;;;7.30;4.30;;;;;;;-6.24;79.92;101314.63;5094360;28;20040;-33
2024/01/09 06:57:09;;;;;;;8.60;5.88;;;;;;;-6.17;79.44;101318.75;5093968;28;20044;-33
2024/01/09 06:59:36;;;;;;;8.80;4.95;;;;;;;-6.31;80.02;101326.91;5094353;28;20070;-32
2024/01/09 07:02:01;;;;;;;7.78;3.92;;;;;;;-6.22;80.69;101324.94;5093869;28;20453;-36
2024/01/09 07:04:26;;;;;;;6.32;4.10;;;;;;;-6.26;80.60;101321.56;5094127;28;20036;-33
2024/01/09 07:06:52;;;;;;;5.53;4.13;;;;;;;-6.24;80.18;101322.41;5093897;28;20031;-36
2024/01/09 07:09:18;;;;;;;11.65;5.63;;;;;;;-6.22;79.60;101331.00;5094115;28;20084;-36
2024/01/09 07:11:43;;;;;;;5.55;3.75;;;;;;;-6.22;79.86;101325.81;5094011;28;20511;-35
2024/01/09 07:14:10;;;;;;;9.38;5.80;;;;;;;-6.26;81.06;101325.91;5093821;28;20118;-32
2024/01/09 07:16:35;;;;;;;6.78;4.75;;;;;;;-6.10;80.79;101333.25;5092938;28;20039;-32
2024/01/09 07:19:01;;;;;;;9.23;4.43;;;;;;;-6.11;79.16;101333.31;5092658;28;20435;-32
2024/01/09 07:21:27;;;;;;;11.98;5.72;;;;;;;-6.13;79.44;101338.53;5091901;28;20043;-36
2024/01/09 07:23:53;;;;;;;7.50;3.95;;;;;;;-6.12;78.96;101336.81;5092980;28;20028;-32
2024/01/09 07:26:18;;;;;;;2.97;2.60;;;;;;;-6.12;79.44;101331.59;5093265;28;20059;-33
2024/01/09 07:28:43;;;;;;;6.28;4.50;;;;;;;-5.93;77.91;101344.91;5093437;28;20479;-36
2024/01/09 07:31:09;;;;;;;11.38;6.13;;;;;;;-5.92;78.80;101337.09;5093507;28;20110;-33
2024/01/09 07:33:35;;;;;;;8.13;4.13;;;;;;;-6.10;77.46;101322.88;5093453;28;20043;-34
2024/01/09 07:36:01;;;;;;;7.93;4.45;;;;;;;-5.93;78.87;101337.13;5093284;28;20398;-34
2024/01/09 07:38:26;;;;;;;7.38;4.80;;;;;;;-5.94;77.83;101341.47;5093344;28;20135;-33
2024/01/09 07:40:52;;;;;;;8.45;5.13;;;;;;;-5.83;77.61;101331.63;5093399;28;20126;-38
2024/01/09 07:43:17;;;;;;;8.65;5.05;;;;;;;-5.74;78.36;101343.47;5093222;28;20040;-32
2024/01/09 07:45:42;;;;;;;10.40;5.25;;;;;;;-5.70;76.40;101333.88;5092337;28;20051;-32
2024/01/09 07:48:08;;;;;;;5.78;3.47;;;;;;;-5.70;76.00;101339.06;5093062;28;20040;-36
2024/01/09 07:50:33;;;;;;;8.65;4.90;;;;;;;-5.77;75.56;101336.63;5093261;28;20520;-33
2024/01/09 07:52:58;;;;;;;10.95;5.03;;;;;;;-5.51;75.97;101338.50;5093188;28;20040;-34
2024/01/09 07:55:25;;;;;;;7.78;4.13;;;;;;;-5.55;76.03;101351.59;5093185;28;20040;-36
2024/01/09 07:57:50;;;;;;;8.43;4.38;;;;;;;-5.37;75.19;101345.88;5092817;28;20039;-33
2024/01/09 08:00:16;;;;;;;8.73;4.07;;;;;;;-5.57;74.20;101359.44;5086855;28;20098;-40
2024/01/09 08:02:42;;;;;;;7.30;4.47;;;;;;;-5.55;74.37;101351.59;5082793;28;20060;-34
2024/01/09 08:05:07;;;;;;;8.93;4.60;;;;;;;-5.43;73.39;101358.19;5083033;28;20043;-33
2024/01/09 08:07:33;;;;;;;8.35;5.50;;;;;;;-5.25;73.23;101352.44;5080919;28;20444;-34
2024/01/09 08:09:58;;;;;;;5.80;4.15;;;;;;;-5.52;73.65;101352.38;5083307;28;20043;-38
2024/01/09 08:12:25;;;;;;;8.05;4.70;;;;;;;-5.16;72.88;101343.53;5082231;28;20040;-34
2024/01/09 08:14:50;;;;;;;9.77;5.82;;;;;;;-5.17;72.37;101347.88;5080278;28;20127;-37
2024/01/09 08:17:16;;;;;;;8.48;4.75;;;;;;;-5.23;71.78;101351.50;5082876;28;20483;-35
2024/01/09 08:19:42;;;;;;;5.30;3.30;;;;;;;-5.15;72.00;101350.41;5081875;28;20143;-34
2024/01/09 08:22:07;;;;;;;10.63;5.57;;;;;;;-4.96;71.10;101351.56;5081617;28;20490;-33
2024/01/09 08:24:33;;;;;;;10.25;5.32;;;;;;;-4.85;69.98;101353.81;5083139;28;20404;-34
2024/01/09 08:26:58;;;;;;;5.35;3.50;;;;;;;-5.03;70.48;101347.44;5083522;28;20046;-36
2024/01/09 08:29:27;;;;;;;7.90;4.55;;;;;;;-4.58;69.38;101355.53;5092537;28;20039;-34
2024/01/09 08:31:53;;;;;;;7.47;4.43;;;;;;;-4.32;68.27;101354.66;5092497;28;20028;-37
2024/01/09 08:34:19;;;;;;;4.45;2.90;;;;;;;-4.64;68.25;101353.13;5092743;28;20028;-35
2024/01/09 08:36:45;;;;;;;6.38;3.67;;;;;;;-4.71;69.16;101355.06;5092114;28;20567;-36
2024/01/09 08:39:14;;;;;;;7.07;4.65;;;;;;;-4.31;67.70;101351.16;5092560;28;20129;-38
2024/01/09 08:41:41;;;;;;;7.93;4.18;;;;;;;-4.32;65.82;101356.44;5090887;28;20579;-33
2024/01/09 08:44:07;;;;;;;8.07;4.78;;;;;;;-3.03;63.92;101356.91;5092356;28;20064;-34
2024/01/09 08:46:33;;;;;;;8.02;5.10;;;;;;;-3.67;63.54;101351.50;5092117;28;20071;-34
2024/01/09 08:48:58;;;;;;;7.07;5.07;;;;;;;-3.27;62.72;101348.28;5092333;28;20059;-32
2024/01/09 08:51:24;;;;;;;6.80;3.58;;;;;;;-2.94;60.56;101353.09;5092260;28;20426;-34
2024/01/09 08:53:49;;;;;;;5.55;3.92;;;;;;;-2.72;60.66;101349.66;5092086;28;20040;-35
2024/01/09 08:56:14;;;;;;;9.77;4.78;;;;;;;-1.53;57.17;101342.75;5091757;28;20415;-34
2024/01/09 08:58:40;;;;;;;9.25;5.65;;;;;;;-2.09;57.22;101346.09;5092232;28;20047;-35
2024/01/09 09:01:05;;;;;;;9.48;5.75;;;;;;;-1.60;56.95;101346.56;5091977;28;20154;-34
2024/01/09 09:03:31;;;;;;;9.70;5.55;;;;;;;-1.01;56.29;101345.59;5091800;28;20086;-34
2024/01/09 09:05:59;;;;;;;10.85;5.25;;;;;;;-0.08;54.31;101346.22;5092106;28;20032;-35
2024/01/09 09:08:25;;;;;;;8.50;5.15;;;;;;;-1.82;55.08;101357.13;5091923;28;20031;-35
2024/01/09 09:10:50;;;;;;;7.57;4.30;;;;;;;-2.07;56.05;101344.28;5091953;28;20038;-34
2024/01/09 09:13:16;;;;;;;8.13;5.38;;;;;;;-2.19;54.87;101377.00;5091801;28;20036;-38
2024/01/09 09:15:41;;;;;;;8.70;5.72;;;;;;;-1.68;55.50;101333.00;5091881;28;20067;-37
2024/01/09 09:18:06;;;;;;;9.55;5.28;;;;;;;-1.28;55.20;101339.03;5091722;28;20499;-33
2024/01/09 09:20:32;;;;;;;5.80;4.28;;;;;;;-2.05;55.08;101342.47;5090613;28;20032;-33
2024/01/09 09:22:58;;;;;;;6.90;4.63;;;;;;;-1.34;54.70;101340.16;5090351;28;20071;-36
2024/01/09 09:25:24;;;;;;;10.52;4.57;;;;;;;-1.22;54.66;101334.38;5091733;28;20032;-35
2024/01/09 09:27:49;;;;;;;7.20;4.25;;;;;;;-1.98;55.33;101349.09;5091561;28;20087;-37
2024/01/09 09:30:15;;;;;;;5.65;3.90;;;;;;;-1.29;54.57;101330.34;5091868;28;20040;-35
2024/01/09 09:32:40;;;;;;;10.80;5.90;;;;;;;-0.43;53.64;101334.91;5091700;28;20036;-34
2024/01/09 09:35:06;;;;;;;6.90;4.07;;;;;;;-1.93;54.60;101328.88;5091790;28;20645;-37
2024/01/09 09:37:31;;;;;;;7.22;4.40;;;;;;;-1.18;54.31;101337.66;5091483;28;20093;-34
2024/01/09 09:39:56;;;;;;;8.55;5.20;;;;;;;-2.22;56.65;101334.47;5090364;28;20036;-33
2024/01/09 09:42:25;;;;;;;7.88;4.45;;;;;;;-2.17;55.55;101334.31;5091403;28;20087;-37
2024/01/09 09:44:52;;;;;;;7.68;4.38;;;;;;;-2.43;56.35;101341.47;5091354;28;20042;-33
2024/01/09 09:47:21;;;;;;;9.32;4.75;;;;;;;-1.20;55.05;101324.69;5091030;28;20048;-36
2024/01/09 09:49:48;;;;;;;6.68;4.45;;;;;;;-1.98;55.70;101338.66;5091593;28;20553;-34
2024/01/09 09:52:14;;;;;;;7.90;4.83;;;;;;;-1.63;56.30;101346.72;5091455;28;20032;-36
2024/01/09 09:54:40;;;;;;;9.07;4.95;;;;;;;-2.07;56.02;101333.84;5091509;28;20040;-38
2024/01/09 09:57:06;;;;;;;5.85;3.88;;;;;;;-2.17;55.37;101334.31;5091046;28;20495;-37
2024/01/09 09:59:31;;;;;;;7.35;4.55;;;;;;;-1.68;53.45;101330.41;5091382;28;20028;-33
2024/01/09 10:01:57;;;;;;;5.80;4.65;;;;;;;-2.47;55.45;101343.38;5091374;28;20036;-35
2024/01/09 10:04:43;;;;;;;5.57;3.00;;;;;;;-1.73;54.50;101327.13;5091535;28;20028;-36
2024/01/09 10:07:09;;;;;;;6.60;4.32;;;;;;;-1.72;53.98;101328.84;5090248;28;20074;-36
2024/01/09 10:09:37;;;;;;;8.05;5.03;;;;;;;-1.53;53.66;101328.84;5095252;28;20059;-39
2024/01/09 10:12:04;;;;;;;8.48;5.53;;;;;;;-1.40;54.02;101320.38;5095319;28;20043;-34
2024/01/09 10:14:29;;;;;;;8.80;4.05;;;;;;;-2.05;54.94;101324.19;5095169;28;20044;-34
2024/01/09 10:16:55;;;;;;;6.95;5.07;;;;;;;-1.07;53.79;101317.09;5094887;28;20052;-34
2024/01/09 10:19:22;;;;;;;5.82;3.38;;;;;;;-1.32;52.97;101320.03;5095008;28;20050;-34
2024/01/09 10:21:49;;;;;;;8.67;5.00;;;;;;;-1.99;53.99;101315.22;5094793;28;20511;-34
2024/01/09 10:24:16;;;;;;;8.70;5.77;;;;;;;-0.98;54.28;101321.91;5094772;28;20046;-38
2024/01/09 10:26:41;;;;;;;7.85;5.15;;;;;;;-1.60;54.06;101317.00;5094701;28;20034;-37
2024/01/09 10:29:11;;;;;;;10.10;5.60;;;;;;;-1.18;53.27;101308.91;5095203;28;20417;-35
2024/01/09 10:31:38;;;;;;;7.50;4.97;;;;;;;-1.47;53.08;101318.97;5094943;28;20043;-38
2024/01/09 10:34:04;;;;;;;8.95;5.05;;;;;;;-1.76;53.33;101316.81;5094916;28;20063;-33
2024/01/09 10:36:31;;;;;;;8.20;4.57;;;;;;;-1.50;52.85;101313.03;5094551;28;20117;-35
2024/01/09 10:39:08;;;;;;;7.55;4.85;;;;;;;-1.34;52.17;101341.94;5094561;28;20036;-36
2024/01/09 10:41:34;;;;;;;7.57;4.35;;;;;;;-1.81;52.93;101305.75;5094643;28;20502;-34
2024/01/09 10:44:00;;;;;;;9.70;5.82;;;;;;;-1.68;52.88;101325.19;5094781;28;20114;-34
2024/01/09 10:46:27;;;;;;;6.78;3.58;;;;;;;-1.97;54.18;101303.78;5083018;28;20032;-34
2024/01/09 10:48:56;;;;;;;13.63;5.90;;;;;;;0.36;51.53;101300.28;5085087;28;20511;-39
2024/01/09 10:51:23;;;;;;;9.02;5.25;;;;;;;-0.05;50.60;101298.91;5084038;28;20024;-34
2024/01/09 10:53:50;;;;;;;8.00;5.15;;;;;;;-0.28;50.84;101304.47;5083024;28;20474;-34
2024/01/09 10:56:16;;;;;;;7.07;4.25;;;;;;;-0.28;49.32;101294.84;5083543;28;20055;-36
2024/01/09 10:58:45;;;;;;;8.90;5.30;;;;;;;-0.58;51.04;101293.81;5083908;28;20067;-36
2024/01/09 11:01:11;;;;;;;8.10;4.68;;;;;;;-1.30;51.33;101297.28;5082729;28;20036;-37
2024/01/09 11:03:36;;;;;;;6.20;4.50;;;;;;;-1.00;50.69;101296.72;5084392;28;20396;-36
2024/01/09 11:06:04;;;;;;;8.93;6.00;;;;;;;-0.06;51.01;101285.91;5066846;28;20029;-34
2024/01/09 11:08:35;;;;;;;6.03;3.70;;;;;;;-0.32;50.45;101282.00;5081290;28;20132;-34
2024/01/09 11:11:04;;;;;;;7.10;4.93;;;;;;;-0.31;49.58;101276.69;5084047;28;20031;-34
2024/01/09 11:13:32;;;;;;;8.20;5.28;;;;;;;-0.71;50.01;101288.31;5084697;28;20036;-37
2024/01/09 11:15:59;;;;;;;6.78;3.80;;;;;;;-0.93;50.95;101272.81;5082893;28;20101;-34
2024/01/09 11:18:27;;;;;;;7.82;5.30;;;;;;;-0.25;49.99;101275.53;5083003;28;20055;-34
2024/01/09 11:21:03;;;;;;;6.60;4.53;;;;;;;-0.84;50.13;101269.78;5083096;28;20039;-34
2024/01/09 11:23:45;;;;;;;5.93;3.97;;;;;;;-1.26;50.82;101269.22;5084683;28;20547;-38
2024/01/09 11:26:13;;;;;;;6.80;4.40;;;;;;;-0.51;49.69;101269.00;5093046;28;20088;-35
2024/01/09 11:28:42;;;;;;;9.90;5.50;;;;;;;-0.47;49.67;101257.44;5093844;28;20032;-33
2024/01/09 11:31:08;;;;;;;8.05;4.22;;;;;;;-0.44;50.38;101261.69;5093846;28;20036;-39
2024/01/09 11:33:41;;;;;;;6.47;4.30;;;;;;;-0.61;51.54;101249.44;5093729;28;20050;-35
2024/01/09 11:36:07;;;;;;;7.55;5.32;;;;;;;-0.53;51.77;101247.28;5089416;28;20036;-35
2024/01/09 11:38:33;;;;;;;9.18;3.72;;;;;;;-0.90;51.29;101245.69;5082225;28;20034;-35
2024/01/09 11:41:06;;;;;;;7.10;4.55;;;;;;;-0.58;51.22;101241.47;5084031;28;20024;-34
2024/01/09 11:43:56;;;;;;;6.55;4.25;;;;;;;-0.92;52.40;101243.13;5083594;28;20040;-36
2024/01/09 11:46:26;;;;;;;9.32;4.85;;;;;;;-1.03;52.58;101245.44;5080798;28;20085;-34
2024/01/09 11:48:52;;;;;;;9.13;5.75;;;;;;;-0.45;52.94;101226.81;5082129;28;20154;-36
2024/01/09 11:51:18;;;;;;;6.95;4.40;;;;;;;-0.56;52.11;101229.13;5083908;28;20115;-33
2024/01/09 11:53:44;;;;;;;4.10;2.85;;;;;;;-0.56;51.37;101227.34;5081273;28;20044;-34
2024/01/09 11:56:13;;;;;;;8.70;5.20;;;;;;;-0.39;51.98;101226.50;5082128;28;20020;-34
2024/01/09 11:58:39;;;;;;;8.57;5.05;;;;;;;-0.46;51.64;101225.09;5073370;28;20467;-33
2024/01/09 12:01:05;;;;;;;7.88;3.28;;;;;;;-0.69;51.93;101230.69;5072891;28;20124;-36
2024/01/09 12:03:33;;;;;;;8.40;5.30;;;;;;;-0.25;51.30;101230.16;5072972;28;20447;-36
2024/01/09 12:05:59;;;;;;;10.45;5.97;;;;;;;-0.21;51.81;101229.06;5072688;28;20039;-33
2024/01/09 12:08:24;;;;;;;7.00;5.03;;;;;;;-0.69;51.55;101221.06;5072709;28;20236;-33
2024/01/09 12:10:50;;;;;;;6.60;4.35;;;;;;;-0.73;51.76;101218.66;5072951;28;20568;-36
2024/01/09 12:13:18;;;;;;;7.63;5.30;;;;;;;-0.58;52.30;101215.28;5072704;28;20040;-36
2024/01/09 12:15:44;;;;;;;8.88;5.28;;;;;;;0.16;50.98;101222.72;5072552;28;20033;-33
2024/01/09 12:18:09;;;;;;;6.57;3.97;;;;;;;-0.51;51.07;101216.66;5072410;28;20037;-35
2024/01/09 12:20:35;;;;;;;7.38;3.75;;;;;;;-0.73;51.48;101221.28;5072329;28;20491;-37
2024/01/09 12:23:02;;;;;;;8.43;4.80;;;;;;;-0.60;52.48;101214.50;5072457;28;20040;-34
2024/01/09 12:25:28;;;;;;;8.43;5.00;;;;;;;-0.42;52.59;101212.72;5072530;28;20033;-34
2024/01/09 12:27:55;;;;;;;7.35;3.75;;;;;;;-1.03;51.97;101218.44;5072193;28;20072;-35
2024/01/09 12:30:21;;;;;;;9.93;5.78;;;;;;;-0.62;51.40;101218.97;5071947;28;20040;-36
2024/01/09 12:32:47;;;;;;;11.25;5.60;;;;;;;-0.51;51.73;101208.81;5072393;28;20102;-36
2024/01/09 12:35:12;;;;;;;7.43;4.80;;;;;;;-0.68;51.20;101214.03;5072178;28;20485;-41
2024/01/09 12:37:38;;;;;;;8.07;4.53;;;;;;;-0.88;51.93;101213.28;5072036;28;20032;-37
2024/01/09 12:40:09;;;;;;;7.78;4.85;;;;;;;-0.88;51.76;101205.44;5072312;28;20480;-37
2024/01/09 12:42:35;;;;;;;9.23;4.55;;;;;;;-0.88;52.04;101213.28;5072202;28;20397;-35
2024/01/09 12:45:01;;;;;;;5.45;4.22;;;;;;;-1.18;52.97;101204.31;5072174;28;20036;-37
2024/01/09 12:47:26;;;;;;;9.15;4.95;;;;;;;-0.80;52.04;101206.81;5071974;28;20536;-34
2024/01/09 12:49:52;;;;;;;8.60;4.82;;;;;;;-1.02;52.22;101207.03;5071916;28;20036;-34
2024/01/09 12:52:20;;;;;;;6.53;4.50;;;;;;;-1.12;52.69;101207.47;5072130;28;20028;-34
2024/01/09 12:54:45;;;;;;;5.55;3.47;;;;;;;-1.26;52.53;101201.25;5072095;28;20068;-34
2024/01/09 12:57:11;;;;;;;7.38;5.32;;;;;;;-0.63;51.95;101209.44;5071709;28;20100;-37
2024/01/09 12:59:37;;;;;;;8.63;4.72;;;;;;;-1.17;52.89;101206.88;5071990;28;20036;-40
2024/01/09 13:02:03;;;;;;;6.55;4.15;;;;;;;-0.70;52.03;101197.59;5071951;28;20029;-36
2024/01/09 13:04:29;;;;;;;5.20;3.60;;;;;;;-1.18;53.01;101196.47;5071818;28;20036;-36
2024/01/09 13:06:55;;;;;;;12.07;5.72;;;;;;;-0.94;52.77;101210.97;5071485;28;20048;-37
2024/01/09 13:09:21;;;;;;;7.47;4.13;;;;;;;-1.25;51.80;101208.16;5071907;28;20033;-39
2024/01/09 13:11:46;;;;;;;6.78;3.95;;;;;;;-0.69;51.65;101207.97;5071928;28;20510;-34
2024/01/09 13:14:13;;;;;;;6.00;4.22;;;;;;;-1.07;52.25;101194.19;5071898;28;20036;-33
2024/01/09 13:16:39;;;;;;;8.85;4.45;;;;;;;-0.71;52.08;101199.34;5071476;28;20044;-34
2024/01/09 13:19:06;;;;;;;7.80;4.90;;;;;;;-0.83;51.44;101195.59;5071716;28;20119;-34
2024/01/09 13:21:31;;;;;;;6.70;3.95;;;;;;;-1.16;52.34;101203.34;5071490;28;20044;-36
2024/01/09 13:23:57;;;;;;;6.05;3.53;;;;;;;-1.09;52.06;101206.50;5071506;28;20103;-39
2024/01/09 13:26:23;;;;;;;5.80;3.72;;;;;;;-0.92;52.56;101203.88;5071532;28;20523;-34
2024/01/09 13:28:48;;;;;;;7.75;4.07;;;;;;;-1.00;52.17;101215.66;5071516;28;20111;-36
2024/01/09 13:31:14;;;;;;;8.15;5.15;;;;;;;-0.61;51.32;101202.34;5071650;28;20057;-34
2024/01/09 13:33:40;;;;;;;8.35;4.57;;;;;;;-0.98;51.60;101201.59;5071582;28;20408;-35
2024/01/09 13:36:05;;;;;;;6.55;3.55;;;;;;;-0.73;51.80;101197.72;5071200;28;20032;-37
2024/01/09 13:38:35;;;;;;;10.63;4.93;;;;;;;-0.91;51.80;101195.13;5071558;28;20086;-35
2024/01/09 13:41:02;;;;;;;5.90;3.80;;;;;;;-0.86;51.87;101194.88;5071653;28;20450;-34
2024/01/09 13:43:28;;;;;;;8.88;4.55;;;;;;;-0.78;52.26;101202.34;5073956;28;20028;-38
2024/01/09 13:45:54;;;;;;;5.38;3.47;;;;;;;-0.82;52.38;101196.44;5075413;28;20381;-40
2024/01/09 13:48:22;;;;;;;6.05;2.55;;;;;;;-0.85;52.22;101201.81;5075189;28;20036;-34
2024/01/09 13:50:48;;;;;;;6.68;4.03;;;;;;;-0.90;51.84;101202.06;5075489;28;20127;-35
2024/01/09 13:53:15;;;;;;;7.90;4.70;;;;;;;-0.81;51.52;101205.97;5075401;28;20123;-38
2024/01/09 13:55:41;;;;;;;6.43;4.63;;;;;;;-0.70;51.30;101210.66;5075314;28;20119;-34
2024/01/09 13:58:07;;;;;;;6.22;4.60;;;;;;;-0.71;51.14;101203.75;5075153;28;20075;-35
2024/01/09 14:00:32;;;;;;;6.30;4.05;;;;;;;-0.66;51.65;101201.72;5075281;28;20087;-33
2024/01/09 14:02:59;;;;;;;7.25;4.20;;;;;;;-0.72;50.76;101202.88;5075307;28;20068;-36
2024/01/09 14:05:25;;;;;;;9.10;4.77;;;;;;;-0.77;51.66;101201.44;5075330;28;20036;-34
2024/01/09 14:07:51;;;;;;;8.30;4.68;;;;;;;-0.79;50.90;101196.25;5073654;28;20086;-34
2024/01/09 14:10:16;;;;;;;3.22;2.95;;;;;;;-0.86;51.03;101197.50;5075337;28;20442;-33
2024/01/09 14:12:42;;;;;;;8.30;4.88;;;;;;;-0.59;50.98;101190.00;5075166;28;20036;-39
2024/01/09 14:15:08;;;;;;;5.43;3.63;;;;;;;-0.85;51.05;101189.59;5075061;28;20044;-33
2024/01/09 14:17:34;;;;;;;7.50;3.92;;;;;;;-0.83;50.31;101189.50;5077211;28;20080;-39
2024/01/09 14:20:00;;;;;;;8.90;5.22;;;;;;;-0.55;50.79;101194.16;5084223;28;20028;-35
2024/01/09 14:22:26;;;;;;;6.60;4.72;;;;;;;-0.64;50.59;101185.03;5083416;28;20025;-33
2024/01/09 14:24:52;;;;;;;5.95;4.20;;;;;;;-0.65;50.89;101192.97;5084962;28;20063;-34
2024/01/09 14:27:19;;;;;;;6.43;3.08;;;;;;;-0.91;50.46;101199.53;5084874;28;20066;-37
2024/01/09 14:29:45;;;;;;;8.10;4.47;;;;;;;-0.95;51.11;101200.59;5083330;28;20037;-36
2024/01/09 14:32:11;;;;;;;9.57;4.95;;;;;;;-0.98;51.43;101182.41;5084829;28;20039;-34
2024/01/09 14:34:36;;;;;;;7.18;4.25;;;;;;;-1.07;51.25;101186.34;5084764;28;20036;-36
2024/01/09 14:37:03;;;;;;;7.70;4.50;;;;;;;-1.01;51.34;101188.66;5082960;28;20044;-38
2024/01/09 14:39:28;;;;;;;6.95;3.53;;;;;;;-1.01;50.60;101188.66;5085152;28;20559;-38
2024/01/09 14:41:54;;;;;;;6.85;4.57;;;;;;;-1.07;50.90;101182.88;5084173;28;20120;-34
2024/01/09 14:44:20;;;;;;;4.13;2.55;;;;;;;-1.13;51.04;101190.09;5083419;28;20042;-33
2024/01/09 14:46:48;;;;;;;6.25;4.53;;;;;;;-0.99;51.96;101191.19;5084726;28;20111;-34
2024/01/09 14:49:13;;;;;;;;;;;;;;;-1.22;51.98;101187.09;5084416;28;20036;-33
2024/01/09 14:51:40;;;;;;;3.58;2.33;;;;;;;-1.18;51.64;101180.78;5083456;28;19942;-35
2024/01/09 14:54:06;;;;;;;6.27;4.10;;;;;;;-1.08;51.54;101179.44;5080687;28;20407;-34
2024/01/09 14:56:31;;;;;;;8.05;4.60;;;;;;;-1.23;51.62;101183.66;5074015;28;20048;-36
2024/01/09 14:58:56;;;;;;;6.20;3.88;;;;;;;-1.17;51.67;101183.34;5074154;28;20131;-39
2024/01/09 15:01:22;;;;;;;5.50;3.78;;;;;;;-1.21;51.72;101184.41;5077469;28;20041;-34
2024/01/09 15:03:47;;;;;;;7.95;4.35;;;;;;;-1.26;52.29;101180.31;5084127;28;20028;-38
2024/01/09 15:06:12;;;;;;;6.32;3.85;;;;;;;-1.26;51.68;101183.78;5081956;28;20041;-39
2024/01/09 15:08:38;;;;;;;6.88;4.60;;;;;;;-1.28;51.57;101179.56;5072694;28;20028;-35
2024/01/09 15:11:10;;;;;;;7.35;4.38;;;;;;;-1.30;52.36;101173.56;5077685;28;20074;-34
2024/01/09 15:13:38;;;;;;;5.35;3.50;;;;;;;-1.35;52.68;101186.00;5089311;28;20159;-34
2024/01/09 15:16:05;;;;;;;6.80;4.05;;;;;;;-1.38;52.30;101180.00;5090924;28;20369;-34
2024/01/09 15:18:30;;;;;;;5.50;3.78;;;;;;;-1.26;53.11;101177.72;5094105;28;20040;-34
2024/01/09 15:20:56;;;;;;;6.55;3.80;;;;;;;-1.42;52.14;101181.09;5093911;28;20039;-35
2024/01/09 15:23:21;;;;;;;7.10;3.60;;;;;;;-1.32;53.20;101176.25;5086102;28;20055;-38
2024/01/09 15:25:47;;;;;;;6.07;3.60;;;;;;;-1.46;52.99;101184.75;5073632;28;20116;-38
2024/01/09 15:28:12;;;;;;;7.60;4.57;;;;;;;-1.40;52.32;101179.22;5073391;28;20454;-35
2024/01/09 15:30:38;;;;;;;6.53;4.05;;;;;;;-1.50;52.75;101177.13;5073635;28;20044;-33
2024/01/09 15:33:07;;;;;;;6.30;3.40;;;;;;;-1.24;53.03;101175.84;5073482;28;20040;-38
2024/01/09 15:35:35;;;;;;;5.60;3.20;;;;;;;-1.52;52.69;101179.81;5073454;28;20158;-37
2024/01/09 15:38:04;;;;;;;5.80;3.97;;;;;;;-1.48;52.41;101191.81;5073313;28;20071;-34
2024/01/09 15:40:30;;;;;;;6.32;3.58;;;;;;;-1.53;52.55;101182.50;5073288;28;20033;-37
2024/01/09 15:42:57;;;;;;;8.43;3.90;;;;;;;-1.48;52.42;101181.38;5073308;28;20048;-38
2024/01/09 15:45:23;;;;;;;1.98;1.83;;;;;;;-1.50;52.66;101191.06;5073225;28;20199;-34
2024/01/09 15:47:50;;;;;;;6.20;3.67;;;;;;;-1.50;52.61;101188.44;5073032;28;20032;-33
2024/01/09 15:50:16;;;;;;;4.85;3.53;;;;;;;-1.54;52.96;101188.66;5072825;28;20622;-34
2024/01/09 15:52:42;;;;;;;5.45;3.30;;;;;;;-1.53;52.92;101191.19;5072335;28;20032;-34
2024/01/09 15:55:08;;;;;;;7.07;4.80;;;;;;;-1.61;52.60;101190.72;5072297;28;20419;-38
2024/01/09 15:57:33;;;;;;;6.53;4.18;;;;;;;-1.64;52.99;101188.22;5072522;28;20049;-36
2024/01/09 15:59:59;;;;;;;5.90;4.03;;;;;;;-1.61;52.92;101190.72;5073050;28;20040;-36
2024/01/09 16:02:24;;;;;;;6.82;4.50;;;;;;;-1.77;53.94;101192.34;5072929;28;20040;-36
2024/01/09 16:04:50;;;;;;;6.30;4.30;;;;;;;-1.75;53.34;101186.16;5087572;28;20403;-35
2024/01/09 16:07:15;;;;;;;5.38;3.97;;;;;;;-1.76;53.79;101196.66;5092648;28;20084;-33
2024/01/09 16:09:41;;;;;;;7.53;4.18;;;;;;;-1.85;53.60;101199.69;5093210;28;20603;-33
2024/01/09 16:12:07;;;;;;;5.10;3.63;;;;;;;-1.87;53.70;101194.56;5093007;28;20110;-34
2024/01/09 16:14:32;;;;;;;8.00;4.05;;;;;;;-1.98;53.80;101196.78;5092938;28;20043;-35
2024/01/09 16:16:58;;;;;;;7.03;4.15;;;;;;;-1.99;54.71;101206.41;5092674;28;20040;-39
2024/01/09 16:19:23;;;;;;;5.97;3.80;;;;;;;-1.83;53.48;101205.69;5092855;28;20028;-34
2024/01/09 16:21:51;;;;;;;6.47;3.95;;;;;;;-1.95;53.87;101205.34;5092806;28;20123;-35
2024/01/09 16:24:17;;;;;;;5.90;3.83;;;;;;;-1.98;53.88;101210.69;5091661;28;20054;-36
2024/01/09 16:26:42;;;;;;;6.32;3.95;;;;;;;-1.96;53.86;101206.28;5092446;28;20436;-34
2024/01/09 16:29:08;;;;;;;10.13;4.03;;;;;;;-1.94;54.04;101214.03;5092711;28;20105;-34
2024/01/09 16:31:33;;;;;;;8.30;4.10;;;;;;;-2.04;54.15;101210.97;5092705;28;20016;-33
2024/01/09 16:33:59;;;;;;;7.10;4.15;;;;;;;-2.08;54.02;101212.06;5086596;28;20029;-35
2024/01/09 16:36:25;;;;;;;7.80;3.47;;;;;;;-2.05;55.07;101224.09;5077531;28;20047;-35
2024/01/09 16:38:52;;;;;;;6.40;4.35;;;;;;;-2.03;54.44;101223.09;5072340;28;20450;-34
2024/01/09 16:41:17;;;;;;;6.35;4.00;;;;;;;-2.03;53.52;101222.25;5072116;28;20029;-34